< < Back
Terminal Aerodrome Forecast


Current Version              Previous Versions:   1  2  3  4  5  6  7  8  9  

Terminal Aerodrome Forecast

020
FTUS44 KOHX 271727
TAFBNA
TAF
KBNA 271727Z 2718/2818 19011G20KT P6SM BKN250
     FM280000 16005KT P6SM BKN250
     FM281200 19010KT P6SM SCT050 OVC120=

Latest METAR

424
SAUS70 KWBC 271800 RRI
MTRBNA
METAR KBNA 271753Z 21012G18KT 10SM SCT050 SCT200 BKN250 31/16 A3001 RMK
AO2 SLP157 T03060161 10311 20211 58014


USA.gov is the U.S. government's official web portal to all federal, state and local government web resources and services.